Elazığ Airport

LTCA · Elazığ, 土耳其

罗盘
风向 的 风向 280° Elazığ Airport 7/25
风: 4 kt, 2 beaufort

4 kt

2 kt
改变
0 ft 1.000 2.000 3.000 4.000 5.000
CAVOK
METAR LTCA 012250Z 28004KT CAVOK 02/M02 Q1019 NOSIG RMK RWY07 20004KT 6CI200

METAR Elazığ Airport - LTCA/EZS

Elazığ Airport是,土耳其中的中型机场。 该机场位于纬度38,59765和经度39,28147。 该机场有一条跑道: 7/25. 本场的ICAO机场代码为LTCA。 该机场的IATA代码为EZS。 机场在Ankara FIR中。

该航空气象观测是针对Elazığ Airport在2024年3月2日 01:50, 当地时间进行的。

机场观察

风向为280°,速度为4 kt。

天气为CAVOK。这意味着在5.000 ft或MSA(最低安全高度)以下(以较高者为准)以下没有云。这也意味着没有观测到积雨云或高耸的积云,可见度为10 km 或者更多或更高。此外,不会有雾,降雨或其他重要天气。

温度为2 °C,阵风为-2 °C。 露点为-2 °C,相对湿度为75%。 海平面上的气压为1019 hPa (QNH)。

白天

今天,太阳从06:54升起,在18:15降落。 这适用于Elazığ Airport,世界夏令时可能有所不同。 当地时间与世界标准时间之间的时差为+3 小时。 当前,没有夏令时有效。

公司介绍

我们没有关于这个机场的公司信息。

体会

到Vliegles.nl去找飞行课程,跳伞和其他飞行体验。 浏览页面,了解Elazığ Airport附近所有可用的活动。 你也可以使用搜索功能来寻找你所在地附近的特定飞行课程、跳伞或其他飞行体验。

跑道

Id 标题 侧风 逆风 侧风 %
7/25 076°-256° 2 kt 4 kt 41 %

逆风成分最大的方向会被突出显示,并用于横风计算。 这并不一定意味着这个方向在使用。

温度 & 天气

温度 2 °C
露点 -2 °C
相对湿度 75%
风寒 -2 °C
Kp-index 0 (0-9)

评论

RWY07 20004KT 6CI200

白天

日出
06:54 (4:41)
中午
12:35
日落
18:15

小工具

你想在你的网站上有一个关于Elazığ Airport的当前航空天气(METAR)的小部件吗?

显示HTML代码
?>